• Join FlightAware (Why Join?)
  • Login
  • US Flag GB Flag 
18:15 EDT


 

Airport Tracker/Info


-or-


 

Live Flight TrackerFlight Track Log ✈ DAL6036 ✈ 20-Apr-2013 ✈ KRIC - KDTW

Flight Track Log - Related Links

Times and Time Zones

All times are in EDT time to prevent confusion due to time zone crossing. See the DAL6036 flight status page for this flight to view local times or setup timezone preferences in your user account.

Time Position Orientation Groundspeed Altitude Reporting Facility
EDT Latitude Longitude Course Direction KTS MPH feet Rate Location/Type
16:45 37.5333 -77.3167 254° West 168 193 900  Level Potomac TRACON
16:46 37.5469 -77.3678 289° West 154 177 3,400 2,280 Climbing Washington Center
16:47 37.5250 -77.4378 248° West 162 186 5,800 2,580 Climbing Washington Center
16:48 37.4116 -77.6612 257° West  Level FlightAware Approximate
16:48 37.5008 -77.5186 249° West 206 237 8,600  Level Washington Center
16:49 37.3901 -77.7797 257° West  Level FlightAware Approximate
16:49 37.4764 -77.6017 250° West 240 276 11,000  Level Washington Center
16:50 37.3655 -77.8973 254° West  Level FlightAware Approximate
16:50 37.4478 -77.6897 248° West 259 298 12,700  Level Washington Center
16:51 37.4169 -77.7908 249° West 286 329 13,900 1,200 Climbing Washington Center
16:52 37.3878 -77.8919 250° West 304 350 15,100 1,200 Climbing Washington Center
16:53 37.3544 -78.0008 249° West 326 375 16,300 1,200 Climbing Washington Center
16:54 37.3292 -78.1122 254° West 331 381 17,600 1,200 Climbing Washington Center
16:55 37.3081 -78.2239 257° West 331 381 18,800 1,140 Climbing Washington Center
16:56 37.3033 -78.3411 267° West 336 387 19,900 1,020 Climbing Washington Center
16:57 37.3486 -78.4553 297° West 336 387 20,900 1,140 Climbing Washington Center
16:58 37.3875 -78.5742 292° West 348 400 22,200 1,380 Climbing Washington Center
16:59 37.4322 -78.7017 294° West 355 409 23,700 1,380 Climbing Washington Center
17:00 37.4708 -78.8131 294° West 360 414 25,000 1,260 Climbing Washington Center
17:01 37.5094 -78.9300 293° West 360 414 26,300 1,260 Climbing Washington Center
17:02 37.5481 -79.0417 294° West 360 414 27,600 840 Climbing Washington Center
17:03 37.5806 -79.1453 292° West 355 409 28,000 180 Climbing Washington Center
17:04 37.6206 -79.2653 293° West 360 414 28,000  Level Washington Center
17:05 37.6664 -79.4039 293° West 383 441 28,000  Level Washington Center
17:06 37.7042 -79.5211 292° West 398 458 28,000  Level Washington Center
17:07 37.7536 -79.6708 293° West 404 465 28,000  Level Washington Center
17:08 37.7933 -79.7886 293° West 404 465 28,000  Level Washington Center
17:09 37.8367 -79.9200 293° West 404 465 28,000  Level Washington Center
17:10 37.8778 -80.0511 292° West 404 465 28,000  Level Washington Center
17:12 37.9556 -80.2939 292° West 399 459 28,000  Level Indianapolis Center
17:13 37.9967 -80.4200 293° West 398 458 28,000  Level Indianapolis Center
17:14 38.0433 -80.5656 292° West 397 457 28,000  Level Indianapolis Center
17:15 38.1183 -80.6725 312° West 421 484 28,000  Level Indianapolis Center
17:16 38.2192 -80.7561 327° Northwest 433 498 28,000  Level Indianapolis Center
17:17 38.3181 -80.8372 327° Northwest 426 490 28,000  Level Indianapolis Center
17:18 38.4172 -80.9197 327° Northwest 424 488 28,000  Level Indianapolis Center
17:19 38.5147 -81.0011 327° Northwest 421 484 28,000  Level Indianapolis Center
17:20 38.6317 -81.0967 327° Northwest 416 479 28,000  Level Indianapolis Center
17:21 38.7286 -81.1778 327° Northwest 418 481 28,000  Level Indianapolis Center
17:22 38.8242 -81.2578 327° Northwest 417 480 28,000  Level Indianapolis Center
17:23 38.9203 -81.3378 327° Northwest 417 480 28,000  Level Indianapolis Center
17:24 39.0217 -81.4100 331° Northwest 424 488 28,000  Level Indianapolis Center
17:25 39.1397 -81.4472 346° North 437 503 28,000  Level Indianapolis Center
17:26 39.2597 -81.4828 347° North 441 507 28,000  Level Indianapolis Center
17:27 39.4006 -81.5283 346° North 436 502 28,000  Level Indianapolis Center
17:28 39.5181 -81.5656 346° North 435 501 28,000  Level Indianapolis Center
17:29 39.6347 -81.6014 347° North 432 497 28,000  Level Indianapolis Center
17:31 39.7567 -81.6403 346° North 430 495 28,000  Level Indianapolis Center
17:32 39.8744 -81.6781 346° North 432 497 28,000  Level Indianapolis Center
17:33 39.9914 -81.7156 346° North 436 502 28,000  Level Indianapolis Center
17:34 40.1100 -81.7536 346° North 434 499 28,000  Level Indianapolis Center
17:35 40.2292 -81.7914 346° North 433 498 28,000  Level Indianapolis Center
17:36 40.3475 -81.8297 346° North 436 502 28,000  Level Indianapolis Center
17:36 40.4311 -81.8569 346° North 431 496 28,000  Level Cleveland Center
17:37 40.5475 -81.8947 346° North 431 496 28,000  Level Cleveland Center
17:38 40.6617 -81.9325 346° North 425 489 28,000 -480 Level Cleveland Center
17:39 40.7758 -81.9706 346° North 425 489 27,100 -1,140 Descending Cleveland Center
17:40 40.8900 -82.0086 346° North 425 489 25,800 -1,200 Descending Cleveland Center
17:41 40.9958 -82.0411 347° North 425 489 24,700 -900 Descending Cleveland Center
17:42 41.1081 -82.0794 346° North 420 483 24,000 -360 Descending Cleveland Center
17:43 41.2306 -82.1156 348° North 405 466 24,000  Level Cleveland Center
17:44 41.3239 -82.1508 344° North 394 453 24,000 -900 Level Cleveland Center
17:45 41.4100 -82.2469 320° Northwest 360 414 22,200 -2,100 Descending Cleveland Center
17:46 41.4689 -82.3456 309° West 352 405 19,800 -2,100 Descending Cleveland Center
17:47 41.5217 -82.4386 307° West 328 377 18,000 -1,980 Descending Cleveland Center
17:48 41.5664 -82.5092 310° West 287 330 16,200 -2,040 Descending Cleveland Center
17:49 41.6253 -82.6081 309° West 313 360 14,000 -1,920 Descending Cleveland Center
17:50 41.6778 -82.7017 307° West 318 366 12,200 -1,020 Descending Cleveland Center
17:51 41.7322 -82.7925 309° West 318 366 12,000 -120 Descending Cleveland Center
17:52 41.8036 -82.8728 320° Northwest 316 364 12,000  Level Cleveland Center
17:53 41.8728 -82.9592 317° Northwest 319 367 12,000 -480 Level Cleveland Center
17:54 41.9339 -83.0339 318° Northwest 319 367 11,100 -540 Descending Cleveland Center
17:55 41.9844 -83.0944 318° Northwest 296 341 11,000 -60 Descending Cleveland Center
17:56 42.0314 -83.1467 320° Northwest 251 289 11,000  Level Cleveland Center
17:57 42.0494 -83.1725 313° West 218 251 11,000  Level Cleveland Center
17:57 42.0758 -83.2044 318° Northwest 226 260 11,000 -300 Level Cleveland Center
17:58 42.1525 -83.2244 349° North 234 269 10,500 -960 Descending Cleveland Center
17:59 42.2094 -83.1958 20° North 244 281 9,000 -1,440 Descending Cleveland Center
18:00 42.2689 -83.1533 28° Northeast 231 266 7,600 -1,020 Descending Cleveland Center
18:01 42.3261 -83.1136 27° Northeast 232 267 7,000 -900 Descending Cleveland Center
18:02 42.3817 -83.1439 338° Northwest 206 237 5,800 -1,380 Descending Cleveland Center
18:03 42.3614 -83.2106 248° West 209 241 4,300 -1,200 Descending Cleveland Center
18:04 42.3228 -83.2594 223° Southwest 182 209 3,500 -900 Descending Cleveland Center